createdAt,value
2022-09-23T00:00:22.452Z,8.82
2022-09-23T00:03:08.314Z,9.77
2022-09-23T00:06:01.694Z,9.77
2022-09-23T00:08:47.460Z,8.80
2022-09-23T00:11:32.884Z,9.43
2022-09-23T00:14:18.716Z,9.07
2022-09-23T00:17:04.009Z,9.73
2022-09-23T00:19:49.643Z,9.68
2022-09-23T00:22:36.428Z,9.90
2022-09-23T00:25:21.865Z,9.60
2022-09-23T00:28:07.316Z,9.15
2022-09-23T00:30:52.984Z,9.05
2022-09-23T00:33:38.379Z,8.55
2022-09-23T00:36:25.316Z,8.95
2022-09-23T00:39:10.783Z,8.85
2022-09-23T00:41:56.286Z,9.40
2022-09-23T00:45:04.289Z,9.10
2022-09-23T00:48:02.318Z,8.80
2022-09-23T00:50:53.403Z,8.23
2022-09-23T00:53:40.315Z,8.25
2022-09-23T00:56:26.042Z,8.68
2022-09-23T00:59:11.286Z,8.70
2022-09-23T01:01:58.749Z,8.32
2022-09-23T01:04:44.390Z,8.40
2022-09-23T01:07:30.233Z,8.32
2022-09-23T01:10:17.186Z,8.32
2022-09-23T01:13:20.666Z,8.10
2022-09-23T01:16:14.790Z,8.27
2022-09-23T01:19:34.218Z,8.48
2022-09-23T01:22:44.365Z,7.97
2022-09-23T01:26:11.137Z,8.55
2022-09-23T01:29:34.575Z,7.78
2022-09-23T01:32:38.627Z,8.82
2022-09-23T01:35:24.960Z,9.07
2022-09-23T01:38:44.672Z,7.47
2022-09-23T01:41:40.001Z,8.65
2022-09-23T01:44:34.820Z,8.27
2022-09-23T01:47:30.674Z,8.43
2022-09-23T01:50:43.361Z,8.18
2022-09-23T01:53:40.236Z,7.85
2022-09-23T01:56:31.151Z,8.43
2022-09-23T01:59:32.809Z,8.00
2022-09-23T02:02:33.935Z,7.40
2022-09-23T02:05:30.178Z,8.10
2022-09-23T02:08:26.309Z,7.13
2022-09-23T02:11:15.303Z,8.55
2022-09-23T02:14:16.587Z,6.78
2022-09-23T02:17:10.357Z,6.95
2022-09-23T02:20:01.681Z,6.82
2022-09-23T02:22:56.378Z,6.90
2022-09-23T02:25:54.341Z,6.57
2022-09-23T02:29:07.823Z,6.15
2022-09-23T02:32:33.507Z,6.13
2022-09-23T02:35:32.817Z,6.35
2022-09-23T02:38:21.715Z,6.85
2022-09-23T02:41:22.995Z,6.13
2022-09-23T02:44:16.570Z,6.22
2022-09-23T02:47:02.247Z,6.50
2022-09-23T02:49:47.776Z,6.55
2022-09-23T02:52:33.455Z,6.40
2022-09-23T02:55:23.415Z,5.97
2022-09-23T03:01:38.383Z,6.93
2022-09-23T03:04:31.546Z,6.57
2022-09-23T03:07:41.570Z,5.93
2022-09-23T03:14:08.482Z,6.78
2022-09-23T03:17:33.267Z,6.28
2022-09-23T03:20:39.204Z,7.03
2022-09-23T03:23:39.341Z,6.13
2022-09-23T03:26:31.260Z,6.43
2022-09-23T03:29:19.805Z,6.20
2022-09-23T03:32:08.188Z,5.97
2022-09-23T03:34:56.501Z,6.30
2022-09-23T03:37:53.268Z,6.38
2022-09-23T03:40:43.427Z,7.10
2022-09-23T03:43:30.063Z,5.88
2022-09-23T03:46:18.359Z,6.90
2022-09-23T03:49:17.146Z,6.65
2022-09-23T03:52:03.405Z,6.88
2022-09-23T03:54:49.553Z,6.97
2022-09-23T03:57:36.701Z,6.85
2022-09-23T04:00:22.035Z,6.57
2022-09-23T04:03:11.406Z,7.75
2022-09-23T04:08:42.279Z,8.20
2022-09-23T04:11:28.746Z,7.88
2022-09-23T04:14:15.006Z,8.05
2022-09-23T04:17:00.420Z,7.82
2022-09-23T04:19:45.907Z,8.60
2022-09-23T04:22:33.513Z,8.20
2022-09-23T04:25:19.071Z,7.93
2022-09-23T04:28:04.492Z,8.07
2022-09-23T04:30:49.857Z,8.13
2022-09-23T04:33:35.781Z,7.88
2022-09-23T04:36:21.174Z,8.43
2022-09-23T04:39:06.778Z,8.00
2022-09-23T04:41:51.732Z,7.25
2022-09-23T04:44:38.837Z,8.00
2022-09-23T04:47:24.092Z,8.88
2022-09-23T04:50:09.322Z,7.85
2022-09-23T04:52:55.105Z,8.27
2022-09-23T04:55:41.067Z,7.63
2022-09-23T04:58:26.577Z,7.78
2022-09-23T05:01:24.613Z,8.32
2022-09-23T05:04:13.760Z,8.63
2022-09-23T05:07:02.922Z,8.40
2022-09-23T05:09:48.593Z,7.47
2022-09-23T05:12:34.127Z,7.10
2022-09-23T05:15:19.437Z,7.63
2022-09-23T05:18:04.875Z,7.38
2022-09-23T05:20:56.718Z,7.60
2022-09-23T05:23:48.771Z,7.28
2022-09-23T05:26:33.832Z,7.32
2022-09-23T05:29:19.072Z,6.85
2022-09-23T05:32:04.565Z,7.60
2022-09-23T05:34:49.872Z,7.13
2022-09-23T05:37:35.255Z,7.07
2022-09-23T05:40:20.544Z,7.70
2022-09-23T05:43:06.271Z,7.78
2022-09-23T05:45:52.401Z,7.63
2022-09-23T05:48:38.584Z,7.43
2022-09-23T05:51:30.658Z,7.28
2022-09-23T05:54:16.419Z,7.00
2022-09-23T05:57:04.863Z,6.50
2022-09-23T05:59:50.594Z,7.10
2022-09-23T06:02:36.036Z,7.07
2022-09-23T06:05:21.090Z,8.15
2022-09-23T06:08:07.721Z,7.80
2022-09-23T06:10:54.532Z,7.80
2022-09-23T06:13:41.250Z,7.93
2022-09-23T06:16:27.615Z,7.18
2022-09-23T06:19:12.943Z,7.05
2022-09-23T06:21:58.010Z,7.43
2022-09-23T06:24:42.983Z,7.70
2022-09-23T06:27:28.470Z,7.20
2022-09-23T06:30:13.949Z,7.47
2022-09-23T06:33:00.042Z,7.40
2022-09-23T06:35:56.818Z,8.27
2022-09-23T06:38:44.694Z,7.53
2022-09-23T06:41:30.065Z,6.70
2022-09-23T06:44:16.613Z,6.57
2022-09-23T06:47:01.966Z,7.22
2022-09-23T06:49:47.925Z,7.65
2022-09-23T06:52:33.298Z,5.80
2022-09-23T06:55:18.553Z,6.28
2022-09-23T06:58:04.125Z,6.45
2022-09-23T07:00:49.373Z,6.60
2022-09-23T07:03:35.443Z,5.72
2022-09-23T07:06:20.825Z,6.30
2022-09-23T07:09:08.028Z,6.57
2022-09-23T07:11:53.685Z,6.10
2022-09-23T07:14:39.114Z,5.65
2022-09-23T07:17:25.120Z,6.03
2022-09-23T07:20:11.402Z,5.95
2022-09-23T07:22:56.832Z,5.68
2022-09-23T07:25:42.867Z,6.55
2022-09-23T07:28:28.970Z,5.80
2022-09-23T07:31:26.565Z,6.40
2022-09-23T07:34:17.681Z,5.57
2022-09-23T07:37:02.900Z,6.00
2022-09-23T07:39:48.220Z,6.25
2022-09-23T07:42:33.488Z,6.05
2022-09-23T07:45:18.628Z,5.30
2022-09-23T07:48:05.391Z,5.63
2022-09-23T07:50:50.682Z,5.35
2022-09-23T07:53:36.966Z,5.90
2022-09-23T07:56:26.919Z,7.22
2022-09-23T08:02:03.630Z,7.10
2022-09-23T08:04:49.524Z,6.75
2022-09-23T08:07:35.318Z,6.68
2022-09-23T08:10:21.069Z,7.30
2022-09-23T08:13:06.570Z,6.60
2022-09-23T08:15:55.523Z,6.75
2022-09-23T08:18:45.025Z,6.28
2022-09-23T08:21:30.554Z,6.18
2022-09-23T08:24:21.759Z,6.10
2022-09-23T08:27:07.145Z,5.03
2022-09-23T08:29:52.438Z,5.93
2022-09-23T08:32:37.875Z,5.20
2022-09-23T08:35:23.673Z,5.47
2022-09-23T08:38:12.278Z,5.30
2022-09-23T08:41:23.730Z,5.00
2022-09-23T08:44:32.851Z,5.00
2022-09-23T08:47:24.788Z,4.53
2022-09-23T08:50:20.228Z,4.60
2022-09-23T08:53:12.929Z,4.50
2022-09-23T08:56:00.827Z,4.78
2022-09-23T08:59:22.775Z,3.47
2022-09-23T09:02:35.220Z,4.53
2022-09-23T09:05:27.476Z,3.35
2022-09-23T09:08:13.944Z,3.80
2022-09-23T09:11:00.005Z,3.70
2022-09-23T09:13:56.736Z,3.60
2022-09-23T09:17:04.779Z,3.50
2022-09-23T09:20:21.314Z,3.42
2022-09-23T09:23:33.843Z,2.90
2022-09-23T09:26:39.938Z,3.20
2022-09-23T09:29:35.358Z,3.10
2022-09-23T09:32:46.153Z,2.65
2022-09-23T09:35:38.434Z,2.95
2022-09-23T09:38:24.043Z,3.33
2022-09-23T09:41:16.875Z,2.78
2022-09-23T09:44:19.198Z,2.65
2022-09-23T09:47:28.405Z,2.90
2022-09-23T09:50:21.232Z,2.45
2022-09-23T09:53:25.366Z,2.60
2022-09-23T09:56:14.736Z,2.00
2022-09-23T09:59:08.258Z,1.80
2022-09-23T10:02:21.506Z,2.00
2022-09-23T10:05:07.816Z,1.98
2022-09-23T10:07:54.106Z,1.70
2022-09-23T10:10:54.697Z,3.25
2022-09-23T10:13:40.262Z,1.85
2022-09-23T10:16:25.833Z,1.60
2022-09-23T10:19:28.197Z,1.95
2022-09-23T10:22:24.245Z,1.80
2022-09-23T10:25:17.047Z,1.95
2022-09-23T10:28:30.708Z,2.30
2022-09-23T10:31:25.974Z,2.03
2022-09-23T10:34:28.963Z,2.03
2022-09-23T10:37:23.294Z,9.38
2022-09-23T10:40:53.409Z,4.50
2022-09-23T10:44:35.910Z,3.95
2022-09-23T10:47:42.764Z,2.60
2022-09-23T10:50:39.511Z,2.03
2022-09-23T10:53:49.378Z,1.70
2022-09-23T10:56:40.153Z,1.85
2022-09-23T10:59:49.556Z,1.58
2022-09-23T11:03:10.645Z,1.67
2022-09-23T11:06:22.965Z,1.77
2022-09-23T11:09:13.992Z,2.45
2022-09-23T11:12:24.107Z,1.90
2022-09-23T11:15:38.955Z,2.33
2022-09-23T11:18:30.568Z,1.85
2022-09-23T11:21:27.674Z,2.17
2022-09-23T11:24:39.598Z,1.70
2022-09-23T11:27:46.836Z,2.10
2022-09-23T11:30:57.900Z,1.85
2022-09-23T11:33:56.489Z,1.80
2022-09-23T11:36:53.044Z,1.92
2022-09-23T11:39:45.736Z,1.27
2022-09-23T11:42:58.086Z,2.42
2022-09-23T11:45:57.845Z,1.92
2022-09-23T11:51:57.822Z,1.92
2022-09-23T11:55:15.190Z,1.33
2022-09-23T11:58:25.144Z,1.75
2022-09-23T12:01:37.353Z,1.63
2022-09-23T12:04:23.970Z,1.40
2022-09-23T12:07:19.967Z,1.42
2022-09-23T12:10:09.234Z,2.42
2022-09-23T12:13:23.747Z,2.10
2022-09-23T12:16:33.682Z,1.80
2022-09-23T12:19:47.473Z,1.60
2022-09-23T12:22:52.415Z,1.38
2022-09-23T12:25:57.106Z,1.38
2022-09-23T12:28:46.768Z,5.72
2022-09-23T12:31:41.065Z,3.15
2022-09-23T12:34:30.069Z,1.25
2022-09-23T12:37:27.740Z,1.80
2022-09-23T12:40:44.407Z,2.10
2022-09-23T12:43:33.047Z,1.98
2022-09-23T12:46:27.543Z,1.98
2022-09-23T12:49:37.077Z,1.55
2022-09-23T12:52:26.567Z,1.85
2022-09-23T12:55:22.027Z,1.90
2022-09-23T12:58:56.940Z,1.50
2022-09-23T13:01:43.454Z,1.80
2022-09-23T13:04:54.114Z,1.42
2022-09-23T13:07:47.045Z,1.63
2022-09-23T13:10:54.291Z,2.42
2022-09-23T13:13:43.356Z,2.00
2022-09-23T13:16:40.736Z,1.60
2022-09-23T13:19:25.880Z,1.77
2022-09-23T13:22:14.502Z,2.22
2022-09-23T13:25:02.930Z,1.52
2022-09-23T13:27:52.720Z,1.73
2022-09-23T13:30:49.140Z,1.63
2022-09-23T13:33:54.353Z,1.55
2022-09-23T13:36:48.903Z,1.63
2022-09-23T13:39:34.645Z,2.25
2022-09-23T13:42:29.806Z,3.70
2022-09-23T13:45:19.015Z,2.17
2022-09-23T13:48:11.991Z,1.70
2022-09-23T13:50:57.110Z,2.20
2022-09-23T13:53:42.294Z,3.08
2022-09-23T13:56:30.669Z,1.70
2022-09-23T13:59:38.178Z,1.38
2022-09-23T14:02:28.498Z,1.40
2022-09-23T14:05:26.172Z,1.38
2022-09-23T14:08:12.651Z,1.60
2022-09-23T14:10:59.475Z,2.05
2022-09-23T14:13:46.592Z,2.25
2022-09-23T14:16:32.046Z,1.73
2022-09-23T14:19:19.671Z,1.92
2022-09-23T14:22:09.234Z,1.70
2022-09-23T14:24:58.411Z,1.80
2022-09-23T14:27:46.687Z,1.50
2022-09-23T14:30:32.203Z,1.95
2022-09-23T14:33:34.079Z,1.52
2022-09-23T14:36:37.678Z,1.40
2022-09-23T14:39:22.898Z,2.00
2022-09-23T14:42:09.716Z,2.22
2022-09-23T14:44:57.531Z,1.60
2022-09-23T14:47:49.596Z,1.55
2022-09-23T14:50:47.433Z,2.17
2022-09-23T14:53:34.538Z,1.98
2022-09-23T14:56:21.988Z,1.90
2022-09-23T14:59:40.889Z,1.70
2022-09-23T15:02:31.110Z,2.05
2022-09-23T15:05:22.418Z,2.15
2022-09-23T15:08:12.895Z,1.75
2022-09-23T15:10:58.843Z,1.33
2022-09-23T15:13:49.337Z,1.20
2022-09-23T15:16:34.920Z,1.50
2022-09-23T15:19:21.536Z,4.07
2022-09-23T15:22:09.662Z,3.35
2022-09-23T15:25:11.095Z,2.65
2022-09-23T15:28:08.423Z,3.15
2022-09-23T15:30:53.732Z,2.60
2022-09-23T15:33:39.180Z,2.63
2022-09-23T15:36:27.373Z,1.88
2022-09-23T15:39:13.342Z,1.77
2022-09-23T15:42:01.394Z,2.15
2022-09-23T15:44:46.827Z,2.20
2022-09-23T15:47:32.220Z,1.85
2022-09-23T15:50:18.020Z,1.80
2022-09-23T15:53:04.166Z,1.67
2022-09-23T15:55:53.222Z,1.80
2022-09-23T15:58:38.187Z,2.45
2022-09-23T16:01:30.051Z,2.20
2022-09-23T16:04:16.639Z,2.50
2022-09-23T16:07:04.112Z,2.90
2022-09-23T16:09:49.459Z,2.33
2022-09-23T16:12:34.684Z,1.80
2022-09-23T16:15:22.027Z,2.20
2022-09-23T16:18:09.525Z,2.47
2022-09-23T16:20:54.824Z,2.60
2022-09-23T16:23:47.329Z,2.60
2022-09-23T16:26:39.475Z,2.10
2022-09-23T16:29:25.350Z,2.53
2022-09-23T16:32:10.678Z,2.63
2022-09-23T16:34:58.366Z,2.75
2022-09-23T16:37:46.955Z,3.40
2022-09-23T16:40:32.639Z,3.70
2022-09-23T16:43:19.576Z,3.13
2022-09-23T16:46:12.633Z,4.60
2022-09-23T16:48:58.755Z,3.00
2022-09-23T16:51:43.994Z,3.00
2022-09-23T16:54:29.843Z,3.20
2022-09-23T16:57:15.198Z,2.88
2022-09-23T17:00:19.069Z,3.08
